Time;durP1;ratioP1;P1;durP2;ratioP2;P2;SDS_P1;SDS_P2;PMS_P1;PMS_P2;Temp;Humidity;BMP_temperature;BMP_pressure;BME280_temperature;BME280_humidity;BME280_pressure;Samples;Min_cycle;Max_cycle;Signal;HPM_P1;HPM_P2
2022/08/25 00:00:07;;;;;;;4.90;3.00;;;;;;;23.90;52.24;100885.53;695062;28;998;-41
2022/08/25 00:00:27;;;;;;;5.97;3.10;;;;;;;23.93;51.79;100888.00;693868;28;1278;-41
2022/08/25 00:00:48;;;;;;;7.33;2.90;;;;;;;23.95;52.34;100886.09;695054;28;4427;-44
2022/08/25 00:01:13;;;;;;;7.15;2.97;;;;;;;23.90;52.47;100882.84;694888;28;1067;-41
2022/08/25 00:01:41;;;;;;;7.47;2.90;;;;;;;23.90;51.76;100882.84;695625;28;903;-41
2022/08/25 00:02:05;;;;;;;5.45;2.97;;;;;;;23.94;51.81;100887.91;694441;28;1217;-41
2022/08/25 00:02:25;;;;;;;6.57;3.22;;;;;;;23.92;52.13;100880.94;694353;28;1264;-41
2022/08/25 00:02:46;;;;;;;6.60;3.20;;;;;;;23.89;53.06;100889.13;697748;28;1155;-43
2022/08/25 00:03:07;;;;;;;5.43;3.20;;;;;;;23.83;53.22;100882.31;697292;28;1305;-44
2022/08/25 00:03:27;;;;;;;5.32;2.95;;;;;;;23.82;52.18;100885.91;696716;28;1131;-40
2022/08/25 00:03:48;;;;;;;6.13;3.17;;;;;;;23.82;52.40;100883.25;696954;28;5426;-41
2022/08/25 00:04:11;;;;;;;6.60;3.20;;;;;;;23.83;52.74;100887.66;697381;28;1110;-41
2022/08/25 00:04:32;;;;;;;5.40;3.20;;;;;;;23.79;52.77;100889.63;695524;28;1455;-42
2022/08/25 00:04:52;;;;;;;4.30;3.20;;;;;;;23.80;52.70;100879.78;694527;28;1055;-42
2022/08/25 00:05:12;;;;;;;4.60;2.83;;;;;;;23.91;51.87;100884.56;694913;28;1079;-41
2022/08/25 00:05:33;;;;;;;4.97;2.90;;;;;;;23.93;52.11;100885.34;695509;28;1119;-41
2022/08/25 00:05:53;;;;;;;4.57;2.77;;;;;;;23.91;51.91;100885.44;692254;28;1423;-42
2022/08/25 00:06:14;;;;;;;5.70;3.00;;;;;;;23.89;52.30;100886.47;691957;28;1294;-41
2022/08/25 00:06:37;;;;;;;5.68;3.00;;;;;;;23.89;52.16;100886.47;693404;28;1151;-40
2022/08/25 00:06:57;;;;;;;7.13;3.20;;;;;;;23.88;52.40;100888.25;693938;28;5325;-40
2022/08/25 00:07:17;;;;;;;6.97;3.30;;;;;;;23.89;52.35;100889.13;693732;28;1333;-41
2022/08/25 00:07:38;;;;;;;5.10;3.30;;;;;;;23.85;52.19;100885.72;692443;28;1333;-42
2022/08/25 00:07:59;;;;;;;4.90;3.20;;;;;;;23.87;52.18;100888.31;695274;28;1365;-43
2022/08/25 00:08:19;;;;;;;5.00;3.17;;;;;;;23.88;52.36;100882.06;694292;28;1085;-42
2022/08/25 00:08:40;;;;;;;5.20;3.10;;;;;;;23.85;53.15;100882.22;694113;28;1336;-42
2022/08/25 00:09:00;;;;;;;4.93;2.90;;;;;;;23.86;52.91;100886.63;695198;28;1127;-41
2022/08/25 00:09:24;;;;;;;5.35;2.90;;;;;;;23.84;52.03;100883.16;694745;28;1405;-41
2022/08/25 00:09:45;;;;;;;5.10;2.83;;;;;;;23.86;52.29;100889.28;693111;28;4576;-41
2022/08/25 00:10:06;;;;;;;6.78;3.17;;;;;;;23.83;52.59;100886.75;694248;28;1165;-42
2022/08/25 00:10:27;;;;;;;5.40;3.22;;;;;;;23.79;53.09;100886.09;695177;28;1262;-43
2022/08/25 00:10:47;;;;;;;5.33;3.03;;;;;;;23.79;52.50;100894.09;694295;28;1087;-41
2022/08/25 00:11:16;;;;;;;4.80;3.40;;;;;;;23.79;52.28;100889.63;694062;28;1087;-41
2022/08/25 00:11:38;;;;;;;5.10;3.00;;;;;;;23.77;52.96;100893.31;696793;28;1123;-41
2022/08/25 00:11:59;;;;;;;5.00;2.85;;;;;;;23.76;52.56;100892.47;694258;28;1088;-40
2022/08/25 00:12:19;;;;;;;4.95;2.95;;;;;;;23.78;52.67;100898.56;694063;28;1132;-41
2022/08/25 00:12:40;;;;;;;5.25;3.10;;;;;;;23.80;52.48;100891.34;690924;28;4539;-40
2022/08/25 00:13:01;;;;;;;5.23;3.07;;;;;;;23.80;53.64;100882.47;690359;28;1215;-41
2022/08/25 00:13:22;;;;;;;6.38;3.13;;;;;;;23.78;53.25;100892.38;688728;28;1321;-42
2022/08/25 00:13:45;;;;;;;6.40;3.10;;;;;;;23.76;53.19;100892.47;689790;28;1043;-42
2022/08/25 00:14:15;;;;;;;6.60;3.08;;;;;;;23.75;53.00;100893.41;692681;28;1048;-40
2022/08/25 00:14:36;;;;;;;6.35;3.08;;;;;;;23.73;53.61;100886.44;691071;28;1064;-42
2022/08/25 00:14:57;;;;;;;5.45;3.00;;;;;;;23.72;53.37;100890.91;691395;28;1322;-43
2022/08/25 00:15:17;;;;;;;4.95;2.80;;;;;;;23.70;53.20;100892.78;693743;28;1265;-41
2022/08/25 00:15:38;;;;;;;5.20;3.00;;;;;;;23.67;53.29;100895.66;694431;28;4956;-40
2022/08/25 00:15:59;;;;;;;4.82;3.10;;;;;;;23.64;53.70;100890.47;694693;28;1320;-42
2022/08/25 00:16:22;;;;;;;5.80;3.30;;;;;;;23.61;53.30;100893.34;693791;28;3823;-43
2022/08/25 00:16:42;;;;;;;5.57;3.00;;;;;;;23.60;54.06;100889.78;692404;28;1202;-44
2022/08/25 00:17:04;;;;;;;5.07;2.85;;;;;;;23.57;54.06;100892.63;694854;28;1913;-41
2022/08/25 00:17:24;;;;;;;4.63;2.90;;;;;;;23.56;53.85;100890.06;694978;28;1466;-43
2022/08/25 00:17:44;;;;;;;4.70;3.10;;;;;;;23.55;54.39;100880.31;693746;28;1140;-42
2022/08/25 00:18:05;;;;;;;5.20;2.87;;;;;;;23.52;54.16;100883.16;692090;28;1004;-43
2022/08/25 00:18:26;;;;;;;5.15;2.88;;;;;;;23.51;54.83;100881.44;691919;28;987;-41
2022/08/25 00:18:50;;;;;;;4.72;3.00;;;;;;;23.48;55.00;100893.13;693402;28;4445;-39
2022/08/25 00:19:15;;;;;;;5.43;3.00;;;;;;;23.47;55.14;100891.44;694591;28;1169;-41
2022/08/25 00:19:37;;;;;;;5.00;3.00;;;;;;;23.45;55.02;100885.31;694992;28;1243;-41
2022/08/25 00:19:57;;;;;;;5.38;3.05;;;;;;;23.43;55.09;100885.41;694210;28;1250;-39
2022/08/25 00:20:18;;;;;;;5.60;3.23;;;;;;;23.41;55.00;100886.41;694131;28;1226;-42
2022/08/25 00:20:38;;;;;;;6.00;3.08;;;;;;;23.40;54.79;100884.69;694018;28;1474;-41
2022/08/25 00:20:59;;;;;;;5.95;3.00;;;;;;;23.40;54.70;100890.03;689463;28;1173;-38
2022/08/25 00:21:20;;;;;;;4.70;2.83;;;;;;;23.37;54.71;100891.09;688968;28;1080;-38
2022/08/25 00:21:41;;;;;;;4.05;3.00;;;;;;;23.35;55.08;100889.44;688652;28;4384;-40
2022/08/25 00:22:03;;;;;;;4.68;3.28;;;;;;;23.33;55.58;100877.97;691709;28;1384;-41
2022/08/25 00:22:23;;;;;;;4.53;3.05;;;;;;;23.32;55.21;100886.91;690868;28;1816;-40
2022/08/25 00:22:44;;;;;;;5.73;3.23;;;;;;;23.31;55.13;100891.41;692667;28;1181;-41
2022/08/25 00:23:04;;;;;;;6.57;3.40;;;;;;;23.29;55.28;100895.97;698259;28;1251;-38
2022/08/25 00:23:24;;;;;;;5.40;3.20;;;;;;;23.25;55.06;100886.41;697575;28;1100;-41
2022/08/25 00:23:45;;;;;;;5.30;3.17;;;;;;;23.23;55.15;100889.16;698228;28;1006;-40
2022/08/25 00:24:07;;;;;;;4.83;3.03;;;;;;;23.22;55.56;100894.56;698128;28;1138;-39
2022/08/25 00:24:28;;;;;;;5.30;2.90;;;;;;;23.20;55.56;100883.13;693053;28;1427;-39
2022/08/25 00:24:49;;;;;;;6.20;3.08;;;;;;;23.19;55.37;100884.06;693744;28;4292;-42
2022/08/25 00:25:10;;;;;;;4.87;2.90;;;;;;;23.18;55.82;100893.00;695097;28;1203;-40
2022/08/25 00:25:30;;;;;;;4.50;2.85;;;;;;;23.13;55.64;100886.13;694753;28;1323;-40
2022/08/25 00:25:51;;;;;;;4.93;2.92;;;;;;;23.11;55.66;100893.31;695034;28;1043;-40
2022/08/25 00:26:13;;;;;;;4.90;2.93;;;;;;;23.09;55.86;100889.00;694869;28;1049;-40
2022/08/25 00:26:33;;;;;;;5.50;3.00;;;;;;;23.07;56.13;100889.09;694008;28;1138;-42
2022/08/25 00:26:56;;;;;;;6.10;3.40;;;;;;;23.08;56.61;100889.94;691622;28;1133;-41
2022/08/25 00:27:16;;;;;;;3.90;3.08;;;;;;;23.06;56.36;100887.38;689035;28;1429;-41
2022/08/25 00:27:37;;;;;;;3.95;2.90;;;;;;;23.05;58.32;100893.66;689204;28;4412;-39
2022/08/25 00:27:57;;;;;;;4.40;2.87;;;;;;;23.04;57.37;100886.59;689346;28;1615;-41
2022/08/25 00:28:18;;;;;;;4.20;3.05;;;;;;;22.99;56.75;100885.97;690109;28;1148;-41
2022/08/25 00:28:38;;;;;;;4.73;3.00;;;;;;;22.98;56.77;100886.91;692312;28;1151;-41
2022/08/25 00:28:58;;;;;;;4.63;3.03;;;;;;;22.96;56.70;100880.81;693747;28;1182;-40
2022/08/25 00:29:20;;;;;;;4.93;3.30;;;;;;;22.94;56.67;100885.34;694514;28;1596;-41
2022/08/25 00:29:40;;;;;;;4.88;3.10;;;;;;;22.92;56.69;100889.91;695463;28;1525;-39
2022/08/25 00:30:01;;;;;;;5.07;2.80;;;;;;;22.91;57.08;100883.69;695749;28;1238;-42
2022/08/25 00:30:24;;;;;;;5.43;2.73;;;;;;;22.91;58.68;100888.19;694539;28;1119;-40
2022/08/25 00:30:44;;;;;;;5.20;2.80;;;;;;;22.88;57.37;100883.03;693994;28;4345;-40
2022/08/25 00:31:05;;;;;;;4.55;3.05;;;;;;;22.86;57.17;100885.78;693831;28;1321;-40
2022/08/25 00:31:26;;;;;;;4.65;2.83;;;;;;;22.85;57.11;100889.38;694890;28;1262;-41
2022/08/25 00:31:47;;;;;;;5.27;3.10;;;;;;;22.86;57.70;100884.91;695162;28;1059;-40
2022/08/25 00:32:07;;;;;;;5.25;3.10;;;;;;;22.83;57.73;100888.59;693534;28;1094;-41
2022/08/25 00:32:27;;;;;;;5.38;3.13;;;;;;;22.83;57.06;100887.72;695106;28;1082;-41
2022/08/25 00:32:48;;;;;;;5.57;3.20;;;;;;;22.83;57.33;100885.94;694108;28;1043;-41
2022/08/25 00:33:09;;;;;;;6.05;3.08;;;;;;;22.81;57.29;100886.97;695785;28;1122;-40
2022/08/25 00:33:30;;;;;;;4.97;3.08;;;;;;;22.73;57.27;100885.53;694798;28;1138;-41
2022/08/25 00:33:51;;;;;;;5.13;3.13;;;;;;;22.73;57.58;100888.19;694345;28;4736;-41
2022/08/25 00:34:16;;;;;;;4.80;3.20;;;;;;;22.72;57.83;100882.94;695338;28;1116;-41
2022/08/25 00:34:37;;;;;;;4.57;2.90;;;;;;;22.69;57.60;100891.13;694348;28;1359;-39
2022/08/25 00:34:59;;;;;;;5.03;3.08;;;;;;;22.67;57.53;100890.34;695080;28;1277;-41
2022/08/25 00:35:19;;;;;;;5.32;2.90;;;;;;;22.66;58.05;100886.81;694065;28;1125;-42
2022/08/25 00:35:41;;;;;;;4.90;3.10;;;;;;;22.66;57.82;100889.47;694555;28;1277;-40
2022/08/25 00:36:01;;;;;;;5.07;3.00;;;;;;;22.63;58.09;100892.31;695197;28;1087;-41
2022/08/25 00:36:22;;;;;;;5.20;2.90;;;;;;;22.62;58.53;100887.91;691628;28;1205;-39
2022/08/25 00:36:43;;;;;;;5.25;2.92;;;;;;;22.61;58.03;100883.53;693733;28;5077;-38
2022/08/25 00:37:06;;;;;;;5.93;3.00;;;;;;;22.58;58.94;100891.66;695299;28;1969;-41
2022/08/25 00:37:27;;;;;;;4.90;2.92;;;;;;;22.57;58.51;100893.47;692427;28;1095;-40
2022/08/25 00:37:47;;;;;;;4.95;2.72;;;;;;;22.54;58.64;100890.09;691438;28;1256;-40
2022/08/25 00:38:10;;;;;;;4.67;2.60;;;;;;;22.56;58.74;100888.22;689112;28;1510;-41
2022/08/25 00:38:30;;;;;;;4.50;2.88;;;;;;;22.53;58.68;100891.91;691513;28;1073;-40
2022/08/25 00:38:51;;;;;;;4.23;2.80;;;;;;;22.54;58.86;100890.09;691909;28;4858;-40
2022/08/25 00:39:11;;;;;;;6.80;2.95;;;;;;;22.51;58.61;100901.78;692445;28;1384;-39
2022/08/25 00:39:32;;;;;;;5.82;3.17;;;;;;;22.51;58.50;100895.59;692945;28;1226;-39
2022/08/25 00:39:55;;;;;;;6.03;3.33;;;;;;;22.50;58.76;100892.06;689502;28;4433;-39
2022/08/25 00:40:16;;;;;;;4.60;3.03;;;;;;;22.48;59.11;100895.75;693086;28;981;-40
2022/08/25 00:40:38;;;;;;;5.28;2.92;;;;;;;22.47;58.87;100894.88;691975;28;1002;-39
2022/08/25 00:41:07;;;;;;;6.35;2.90;;;;;;;22.45;59.12;100897.63;692482;28;1234;-39
2022/08/25 00:41:28;;;;;;;4.97;3.10;;;;;;;22.45;58.96;100896.78;693661;28;1376;-42
2022/08/25 00:41:51;;;;;;;4.20;2.92;;;;;;;22.42;59.10;100900.44;694182;28;1146;-45
2022/08/25 00:42:12;;;;;;;4.80;3.05;;;;;;;22.43;59.14;100887.97;694096;28;1334;-43
2022/08/25 00:42:32;;;;;;;5.20;3.00;;;;;;;22.41;59.54;100901.38;694789;28;1117;-41
2022/08/25 00:42:54;;;;;;;4.23;3.00;;;;;;;22.39;59.08;100895.28;693639;28;4398;-39
2022/08/25 00:43:16;;;;;;;4.30;2.95;;;;;;;22.37;59.04;100894.47;695464;28;936;-40
2022/08/25 00:43:39;;;;;;;4.75;3.20;;;;;;;22.33;59.20;100898.22;694304;28;1079;-39
2022/08/25 00:44:03;;;;;;;5.28;3.08;;;;;;;22.33;59.33;100892.88;694130;28;1100;-42
2022/08/25 00:44:25;;;;;;;5.32;2.88;;;;;;;22.32;59.55;100896.50;694355;28;1011;-42
2022/08/25 00:44:45;;;;;;;5.80;2.90;;;;;;;22.30;60.53;100894.84;694543;28;932;-40
2022/08/25 00:45:08;;;;;;;4.70;3.20;;;;;;;22.26;60.33;100903.00;694753;28;952;-40
2022/08/25 00:45:28;;;;;;;6.20;3.75;;;;;;;22.23;60.23;100892.47;694204;28;1186;-41
2022/08/25 00:45:49;;;;;;;5.63;3.10;;;;;;;22.18;60.11;100889.22;693507;28;4611;-39
2022/08/25 00:46:11;;;;;;;5.00;2.87;;;;;;;22.18;60.38;100891.00;695336;28;1087;-40
2022/08/25 00:46:39;;;;;;;4.57;2.90;;;;;;;22.20;60.13;100899.78;693061;28;1152;-41
2022/08/25 00:47:01;;;;;;;4.90;2.90;;;;;;;22.19;59.96;100900.72;694456;28;1102;-40
2022/08/25 00:47:21;;;;;;;4.45;2.90;;;;;;;22.18;60.17;100899.84;694192;28;1202;-42
2022/08/25 00:47:42;;;;;;;5.20;3.03;;;;;;;22.17;60.41;100898.13;692142;28;1120;-41
2022/08/25 00:48:02;;;;;;;4.90;3.13;;;;;;;22.15;60.33;100894.66;693946;28;1095;-39
2022/08/25 00:48:23;;;;;;;4.57;3.13;;;;;;;22.13;60.23;100893.03;694194;28;1277;-42
2022/08/25 00:48:48;;;;;;;4.83;3.30;;;;;;;22.11;60.40;100893.97;694654;28;4666;-42
2022/08/25 00:49:42;;;;;;;5.03;2.90;;;;;;;22.05;60.98;100894.25;694053;28;1146;-41
2022/08/25 00:50:06;;;;;;;4.47;3.00;;;;;;;22.05;61.13;100891.59;693379;28;1014;-40
2022/08/25 00:50:29;;;;;;;5.20;3.17;;;;;;;22.01;60.74;100892.69;694725;28;1457;-43
2022/08/25 00:50:49;;;;;;;5.18;3.00;;;;;;;22.02;60.91;100889.09;694437;28;1162;-40
2022/08/25 00:51:13;;;;;;;4.73;2.97;;;;;;;22.01;60.89;100890.03;695255;28;1246;-40
2022/08/25 00:51:48;;;;;;;5.28;2.88;;;;;;;21.99;61.02;100894.56;693472;28;1087;-40
2022/08/25 00:52:22;;;;;;;5.82;3.30;;;;;;;21.99;60.87;100891.03;692491;28;4717;-41
2022/08/25 00:52:47;;;;;;;6.40;3.00;;;;;;;21.98;60.88;100895.50;694333;28;1000;-42
2022/08/25 00:53:07;;;;;;;5.40;2.90;;;;;;;21.97;61.12;100891.09;693264;28;2121;-40
2022/08/25 00:53:29;;;;;;;6.37;3.10;;;;;;;21.93;61.59;100892.19;694010;28;1185;-41
2022/08/25 00:53:50;;;;;;;6.07;3.08;;;;;;;21.91;61.22;100892.28;693718;28;1202;-41
2022/08/25 00:54:34;;;;;;;4.63;2.88;;;;;;;21.91;61.31;100892.28;693935;28;1317;-40
2022/08/25 00:55:00;;;;;;;4.53;3.10;;;;;;;21.90;61.50;100892.34;692321;28;4271;-39
2022/08/25 00:55:26;;;;;;;4.70;3.05;;;;;;;21.85;62.12;100886.38;693921;28;1109;-41
2022/08/25 00:55:46;;;;;;;7.05;3.20;;;;;;;21.82;61.47;100892.75;693057;28;1286;-41
2022/08/25 00:56:07;;;;;;;5.23;3.00;;;;;;;21.83;61.74;100888.28;693318;28;1204;-42
2022/08/25 00:56:28;;;;;;;5.10;3.10;;;;;;;21.83;61.76;100896.25;693018;28;1091;-40
2022/08/25 00:56:50;;;;;;;5.07;3.03;;;;;;;21.81;61.70;100883.03;692542;28;1293;-40
2022/08/25 00:57:14;;;;;;;4.13;2.80;;;;;;;21.80;62.10;100889.28;692995;28;1111;-40
2022/08/25 00:57:42;;;;;;;4.90;3.00;;;;;;;21.76;62.19;100890.34;692660;28;1245;-42
2022/08/25 00:58:12;;;;;;;4.65;3.00;;;;;;;21.74;61.97;100901.09;692150;28;4697;-41
2022/08/25 00:58:34;;;;;;;5.18;3.03;;;;;;;21.74;61.95;100895.75;693415;28;1667;-40
2022/08/25 00:58:55;;;;;;;5.15;3.10;;;;;;;21.73;61.70;100899.34;694224;28;1308;-41
2022/08/25 00:59:18;;;;;;;4.70;3.05;;;;;;;21.70;62.10;100899.50;692634;28;1037;-43
2022/08/25 00:59:43;;;;;;;4.78;3.15;;;;;;;21.69;62.86;100894.25;694787;28;979;-39
2022/08/25 01:00:10;;;;;;;4.70;3.10;;;;;;;21.67;62.34;100897.00;693599;28;1052;-41
2022/08/25 01:00:36;;;;;;;4.65;3.10;;;;;;;21.68;62.21;100889.88;692964;28;1111;-40
2022/08/25 01:00:57;;;;;;;6.10;3.30;;;;;;;21.64;62.10;100893.59;693972;28;4301;-39
2022/08/25 01:01:18;;;;;;;4.75;3.10;;;;;;;21.62;62.67;100896.34;693959;28;1128;-44
2022/08/25 01:01:38;;;;;;;4.27;2.90;;;;;;;21.62;62.93;100890.16;693999;28;963;-40
2022/08/25 01:01:59;;;;;;;4.38;2.80;;;;;;;21.60;62.96;100893.75;693877;28;1497;-41
2022/08/25 01:02:20;;;;;;;5.35;2.80;;;;;;;21.63;62.52;100887.44;694222;28;1090;-39
2022/08/25 01:02:40;;;;;;;5.53;3.17;;;;;;;21.62;62.80;100896.34;692920;28;1134;-42
2022/08/25 01:03:01;;;;;;;6.60;3.40;;;;;;;21.59;62.94;100894.69;693665;28;1098;-41
2022/08/25 01:03:25;;;;;;;5.53;3.20;;;;;;;21.62;62.92;100895.50;695221;28;1116;-41
2022/08/25 01:03:45;;;;;;;4.90;3.03;;;;;;;21.59;62.75;100893.84;693770;28;4359;-40
2022/08/25 01:04:08;;;;;;;4.72;3.03;;;;;;;21.58;62.46;100900.09;694114;28;1063;-40
2022/08/25 01:04:29;;;;;;;5.78;2.92;;;;;;;21.56;62.84;100893.97;692686;28;1052;-40
2022/08/25 01:04:50;;;;;;;5.43;2.90;;;;;;;21.53;63.02;100899.41;694121;28;1111;-40
2022/08/25 01:05:11;;;;;;;5.22;2.90;;;;;;;21.50;63.14;100894.22;692919;28;1126;-42
2022/08/25 01:05:32;;;;;;;5.20;3.20;;;;;;;21.52;63.62;100897.69;693625;28;1079;-43
2022/08/25 01:05:53;;;;;;;5.60;3.20;;;;;;;21.51;63.87;100896.81;694091;28;1265;-40
2022/08/25 01:06:14;;;;;;;5.55;3.13;;;;;;;21.51;63.58;100899.47;690724;28;1203;-41
2022/08/25 01:06:38;;;;;;;4.18;3.00;;;;;;;21.52;63.33;100895.03;694776;28;1318;-40
2022/08/25 01:07:00;;;;;;;5.43;3.30;;;;;;;21.49;63.52;100893.38;693799;28;4830;-39
2022/08/25 01:07:22;;;;;;;5.28;2.92;;;;;;;21.48;64.61;100899.63;694232;28;957;-40
2022/08/25 01:07:43;;;;;;;4.90;2.88;;;;;;;21.49;63.47;100898.69;694248;28;1123;-44
2022/08/25 01:08:07;;;;;;;6.22;3.20;;;;;;;21.52;63.33;100895.03;694669;28;1039;-42
2022/08/25 01:08:31;;;;;;;5.05;3.00;;;;;;;21.48;63.34;100896.09;693660;28;1106;-40
2022/08/25 01:08:53;;;;;;;4.60;3.03;;;;;;;21.46;63.62;100897.97;693014;28;1170;-42
2022/08/25 01:09:14;;;;;;;4.30;3.00;;;;;;;21.49;63.58;100900.47;692465;28;1399;-40
2022/08/25 01:09:34;;;;;;;5.60;3.13;;;;;;;21.48;63.51;100898.78;693544;28;1111;-40
2022/08/25 01:09:54;;;;;;;5.77;3.10;;;;;;;21.49;63.62;100889.84;694150;28;4396;-41
2022/08/25 01:10:17;;;;;;;5.20;3.10;;;;;;;21.48;63.27;100893.44;693042;28;1265;-40
2022/08/25 01:10:41;;;;;;;5.55;3.20;;;;;;;21.46;63.42;100892.66;692137;28;1230;-43
2022/08/25 01:11:05;;;;;;;4.85;3.25;;;;;;;21.43;63.87;100894.53;690446;28;1100;-41
2022/08/25 01:11:26;;;;;;;5.65;3.30;;;;;;;21.39;63.83;100895.59;692461;28;1116;-39
2022/08/25 01:11:47;;;;;;;5.43;3.17;;;;;;;21.40;63.90;100896.44;694481;28;1178;-41
2022/08/25 01:12:08;;;;;;;6.50;3.10;;;;;;;21.35;63.80;100894.00;693378;28;1532;-40
2022/08/25 01:12:28;;;;;;;6.53;3.10;;;;;;;21.38;64.27;100898.34;690789;28;3662;-40
2022/08/25 01:12:50;;;;;;;4.83;2.97;;;;;;;21.39;64.61;100895.59;691042;28;4367;-40
2022/08/25 01:13:25;;;;;;;5.05;3.10;;;;;;;21.42;64.06;100895.44;693905;28;1193;-40
2022/08/25 01:13:52;;;;;;;4.57;2.97;;;;;;;21.40;64.12;100894.63;693216;28;1381;-44
2022/08/25 01:14:16;;;;;;;5.18;3.08;;;;;;;21.36;64.25;100887.75;695327;28;1130;-42
2022/08/25 01:14:37;;;;;;;4.18;3.08;;;;;;;21.35;63.92;100891.34;696203;28;1091;-40
2022/08/25 01:14:57;;;;;;;3.97;2.97;;;;;;;21.34;64.31;100892.28;692460;28;1040;-40
2022/08/25 01:15:18;;;;;;;5.07;3.40;;;;;;;21.34;64.41;100894.94;692230;28;1214;-40
2022/08/25 01:15:40;;;;;;;6.23;3.20;;;;;;;21.31;64.49;100895.09;691569;28;4307;-43
2022/08/25 01:16:01;;;;;;;4.90;3.20;;;;;;;21.30;64.13;100893.34;693890;28;1083;-40
2022/08/25 01:16:22;;;;;;;5.10;3.17;;;;;;;21.29;64.09;100896.94;693721;28;1095;-40
2022/08/25 01:16:43;;;;;;;4.80;2.90;;;;;;;21.29;64.59;100890.78;692613;28;919;-41
2022/08/25 01:17:04;;;;;;;4.88;3.13;;;;;;;21.24;64.61;100891.84;692163;28;1914;-39
2022/08/25 01:17:26;;;;;;;5.70;3.10;;;;;;;21.25;64.37;100898.00;694283;28;1333;-39
2022/08/25 01:17:50;;;;;;;4.80;3.10;;;;;;;21.25;66.05;100893.59;693517;28;1119;-40
2022/08/25 01:18:11;;;;;;;4.50;3.10;;;;;;;21.21;66.11;100902.63;693175;28;1064;-42
2022/08/25 01:18:52;;;;;;;5.40;3.22;;;;;;;21.17;65.84;100897.50;692690;28;1084;-42
2022/08/25 01:19:14;;;;;;;5.10;2.90;;;;;;;21.17;65.44;100900.16;691588;28;4693;-41
2022/08/25 01:19:35;;;;;;;5.53;3.00;;;;;;;21.16;65.18;100899.31;692155;28;1115;-40
2022/08/25 01:19:55;;;;;;;5.40;3.10;;;;;;;21.17;65.87;100900.16;693257;28;1157;-39
2022/08/25 01:20:18;;;;;;;4.90;3.28;;;;;;;21.16;65.10;100899.31;693640;28;1057;-41
2022/08/25 01:20:39;;;;;;;4.82;3.03;;;;;;;21.15;64.94;100897.56;692926;28;1123;-38
2022/08/25 01:20:59;;;;;;;5.13;3.00;;;;;;;21.16;65.82;100893.13;692529;28;1511;-45
2022/08/25 01:21:22;;;;;;;6.40;3.20;;;;;;;21.15;65.46;100899.38;693671;28;1088;-42
2022/08/25 01:21:46;;;;;;;5.13;3.20;;;;;;;21.12;65.27;100897.72;691995;28;4489;-39
2022/08/25 01:22:06;;;;;;;6.05;3.15;;;;;;;21.11;65.33;100895.97;693151;28;1486;-40
2022/08/25 01:22:27;;;;;;;5.17;2.93;;;;;;;21.14;65.32;100897.66;693425;28;1222;-40
2022/08/25 01:22:49;;;;;;;4.60;2.80;;;;;;;21.13;65.72;100901.22;693089;28;1329;-42
2022/08/25 01:23:09;;;;;;;5.10;3.10;;;;;;;21.07;65.97;100894.41;694971;28;1142;-40
2022/08/25 01:23:31;;;;;;;4.87;3.20;;;;;;;21.04;65.56;100895.41;694859;28;1213;-40
2022/08/25 01:23:54;;;;;;;4.72;3.20;;;;;;;21.07;65.70;100899.72;696062;28;1107;-40
2022/08/25 01:24:39;;;;;;;6.55;3.17;;;;;;;21.04;65.84;100900.72;695077;28;1237;-45
2022/08/25 01:25:03;;;;;;;4.82;2.90;;;;;;;21.07;66.05;100895.28;692384;28;4904;-40
2022/08/25 01:25:33;;;;;;;4.47;3.00;;;;;;;21.11;66.06;100895.13;693082;28;940;-41
2022/08/25 01:26:11;;;;;;;5.60;3.20;;;;;;;21.05;65.72;100897.13;692423;28;1043;-40
2022/08/25 01:26:34;;;;;;;4.50;3.00;;;;;;;21.02;65.47;100894.63;693573;28;1023;-40
2022/08/25 01:26:55;;;;;;;5.70;3.30;;;;;;;21.03;65.62;100896.34;694381;28;1107;-40
2022/08/25 01:27:15;;;;;;;5.53;3.20;;;;;;;21.03;65.62;100893.69;693974;28;1036;-42
2022/08/25 01:27:35;;;;;;;5.90;3.28;;;;;;;21.02;65.49;100897.28;692943;28;1063;-40
2022/08/25 01:27:56;;;;;;;5.63;3.27;;;;;;;21.03;65.43;100895.47;693871;28;4346;-42
2022/08/25 01:28:17;;;;;;;4.90;3.13;;;;;;;20.98;65.65;100901.00;690840;28;1187;-40
2022/08/25 01:29:19;;;;;;;4.68;3.10;;;;;;;20.99;65.81;100900.06;691192;28;1262;-42
2022/08/25 01:29:24;;;;;;;4.90;3.00;;;;;;;20.91;65.87;100899.56;692914;28;1183;-40
2022/08/25 01:29:45;;;;;;;5.93;3.33;;;;;;;20.94;65.72;100904.72;691008;28;1254;-40
2022/08/25 01:30:05;;;;;;;5.78;3.35;;;;;;;20.95;65.77;100901.13;691375;28;1353;-43
2022/08/25 01:30:26;;;;;;;5.57;3.20;;;;;;;20.92;65.87;100904.78;690982;28;1172;-42
2022/08/25 01:30:47;;;;;;;5.32;3.20;;;;;;;20.92;66.16;100898.59;689074;28;4315;-39
2022/08/25 01:31:07;;;;;;;6.47;3.35;;;;;;;20.91;65.69;100900.41;690045;28;1103;-41
2022/08/25 01:31:29;;;;;;;5.63;3.43;;;;;;;20.91;65.45;100897.75;690035;28;1135;-40
2022/08/25 01:31:56;;;;;;;5.80;3.50;;;;;;;20.91;65.85;100904.88;692274;28;1153;-45
2022/08/25 01:32:16;;;;;;;5.10;3.28;;;;;;;20.83;66.16;100897.22;693487;28;935;-40
2022/08/25 01:32:37;;;;;;;5.23;3.23;;;;;;;20.80;66.13;100896.50;695224;28;1047;-41
2022/08/25 01:32:57;;;;;;;6.40;3.13;;;;;;;20.80;66.54;100896.50;693244;28;1211;-40
2022/08/25 01:33:18;;;;;;;6.03;3.40;;;;;;;20.82;67.02;100892.81;692706;28;1247;-43
2022/08/25 01:33:38;;;;;;;5.47;3.45;;;;;;;20.81;66.88;100901.75;692700;28;4432;-40
2022/08/25 01:33:59;;;;;;;6.13;3.47;;;;;;;20.81;66.71;100893.78;693338;28;1229;-40
2022/08/25 01:34:20;;;;;;;6.03;3.33;;;;;;;20.82;66.45;100899.94;690309;28;1084;-40
2022/08/25 01:34:43;;;;;;;4.93;3.30;;;;;;;20.83;66.68;100894.56;691110;28;1133;-40
2022/08/25 01:35:04;;;;;;;5.00;3.22;;;;;;;20.78;66.95;100903.66;692980;28;1648;-41
2022/08/25 01:35:24;;;;;;;5.32;3.40;;;;;;;20.75;67.08;100899.34;693563;28;1130;-40
2022/08/25 01:35:45;;;;;;;5.30;3.50;;;;;;;20.72;67.94;100899.50;693336;28;1278;-39
2022/08/25 01:36:06;;;;;;;5.45;3.20;;;;;;;20.70;68.16;100898.69;693644;28;1188;-41
2022/08/25 01:36:28;;;;;;;4.63;3.00;;;;;;;20.73;67.60;100902.06;692222;28;1080;-42
2022/08/25 01:36:48;;;;;;;4.32;3.00;;;;;;;20.72;67.24;100897.69;692697;28;4412;-40
2022/08/25 01:37:12;;;;;;;5.13;3.33;;;;;;;20.71;67.06;100903.94;693342;28;1922;-40
2022/08/25 01:37:33;;;;;;;4.85;3.10;;;;;;;20.71;66.77;100903.94;693455;28;1162;-43
2022/08/25 01:37:54;;;;;;;6.95;3.22;;;;;;;20.72;67.91;100905.66;691484;28;1092;-41
2022/08/25 01:38:15;;;;;;;5.67;3.47;;;;;;;20.71;68.84;100903.94;693662;28;1038;-41
2022/08/25 01:38:35;;;;;;;5.30;3.25;;;;;;;20.73;67.68;100899.41;693010;28;1103;-41
2022/08/25 01:38:57;;;;;;;6.20;3.40;;;;;;;20.70;68.22;100898.69;692933;28;5082;-41
2022/08/25 01:39:17;;;;;;;5.35;3.33;;;;;;;20.66;68.70;100902.41;693323;28;975;-39
2022/08/25 01:39:38;;;;;;;5.40;3.38;;;;;;;20.62;69.51;100906.97;689381;28;4301;-41
2022/08/25 01:39:58;;;;;;;4.70;3.20;;;;;;;20.60;69.25;100900.84;690087;28;1203;-40
2022/08/25 01:40:19;;;;;;;5.10;3.17;;;;;;;20.53;67.95;100900.25;691101;28;1120;-40
2022/08/25 01:40:40;;;;;;;4.97;2.90;;;;;;;20.51;68.75;100904.75;692904;28;1065;-42
2022/08/25 01:41:00;;;;;;;5.05;3.10;;;;;;;20.49;68.49;100898.66;693114;28;1180;-40
2022/08/25 01:41:29;;;;;;;5.05;3.30;;;;;;;20.50;70.01;100904.81;693836;28;1126;-41
2022/08/25 01:42:01;;;;;;;4.10;3.20;;;;;;;20.52;69.05;100901.19;693343;28;993;-41
2022/08/25 01:43:02;;;;;;;5.85;3.10;;;;;;;20.57;68.57;100912.47;693393;28;1047;-39
2022/08/25 01:43:40;;;;;;;5.65;3.30;;;;;;;20.61;67.80;100905.22;682202;28;4790;-42
2022/08/25 01:44:07;;;;;;;4.47;3.10;;;;;;;20.67;67.41;100899.66;689205;28;1161;-41
2022/08/25 01:44:28;;;;;;;4.50;2.97;;;;;;;20.71;67.64;100905.72;692564;28;1202;-40
2022/08/25 01:44:49;;;;;;;4.68;3.22;;;;;;;20.67;68.13;100904.97;692039;28;1225;-41
2022/08/25 01:45:09;;;;;;;4.35;3.20;;;;;;;20.62;68.20;100903.47;693680;28;1046;-40
2022/08/25 01:45:30;;;;;;;5.23;3.13;;;;;;;20.56;67.72;100905.44;693704;28;1269;-40
2022/08/25 01:45:50;;;;;;;5.00;3.00;;;;;;;20.57;67.97;100908.94;692884;28;4290;-41
2022/08/25 01:46:11;;;;;;;5.10;3.10;;;;;;;20.52;68.59;100908.25;691214;28;1064;-40
2022/08/25 01:46:32;;;;;;;5.55;3.30;;;;;;;20.49;68.76;100905.75;691117;28;1369;-39
2022/08/25 01:46:53;;;;;;;5.20;3.30;;;;;;;20.42;69.41;100908.69;693393;28;1315;-41
2022/08/25 01:47:14;;;;;;;4.68;3.20;;;;;;;20.39;70.16;100900.84;691598;28;1066;-41